Terminal Aerodrome Forecast
Issued by NWS

Home | Current Version | Previous Version | Text Only | Print | Product List | Glossary On
Versions: 1 2 3 4 5 6 7 8 9 10 11 12
000
FTUS42 TJSJ 261729
TAFKPK
TAF
TKPK 261729Z 2618/2718 07010KT P6SM FEW020
     FM270000 03005KT P6SM VCSH SCT021
     FM271100 08010KT P6SM FEW020
      AMD NOT SKED 2702/2711=

USA.gov is the U.S. government's official web portal to all federal, state and local government web resources and services.